Time;durP1;ratioP1;P1;durP2;ratioP2;P2;SDS_P1;SDS_P2;PMS_P1;PMS_P2;Temp;Humidity;BMP_temperature;BMP_pressure;BME280_temperature;BME280_humidity;BME280_pressure;Samples;Min_cycle;Max_cycle;Signal;HPM_P1;HPM_P2
2022/07/19 00:05:20;;;;;;;2.35;2.13;;;;;;;;;;12541160;28;20048;-79
2022/07/19 00:11:22;;;;;;;2.35;2.03;;;;;;;;;;12543512;28;20041;-80
2022/07/19 00:17:24;;;;;;;3.80;2.08;;;;;;;;;;12544156;28;20405;-79
2022/07/19 00:23:26;;;;;;;2.30;2.20;;;;;;;;;;12545959;28;20041;-78
2022/07/19 00:29:28;;;;;;;2.45;2.10;;;;;;;;;;12557823;28;20037;-75
2022/07/19 00:35:30;;;;;;;2.50;2.28;;;;;;;;;;12553383;28;20527;-80
2022/07/19 00:41:32;;;;;;;2.72;2.05;;;;;;;;;;12556367;28;20056;-76
2022/07/19 00:47:34;;;;;;;2.17;1.98;;;;;;;;;;12554691;28;20442;-80
2022/07/19 00:53:39;;;;;;;2.28;2.08;;;;;;;;;;12552782;28;20380;-76
2022/07/19 00:59:43;;;;;;;2.35;2.03;;;;;;;;;;12556263;28;20155;-79
2022/07/19 01:05:46;;;;;;;2.70;2.50;;;;;;;;;;12535442;28;20041;-75
2022/07/19 01:11:48;;;;;;;2.45;2.25;;;;;;;;;;12553197;28;20123;-79
2022/07/19 01:17:50;;;;;;;2.70;2.50;;;;;;;;;;12551602;28;20044;-80
2022/07/19 01:23:52;;;;;;;3.88;2.13;;;;;;;;;;12550429;28;20045;-80
2022/07/19 01:29:54;;;;;;;2.55;2.35;;;;;;;;;;12550368;28;20039;-80
2022/07/19 01:35:56;;;;;;;2.95;2.53;;;;;;;;;;12556213;28;20056;-80
2022/07/19 01:41:58;;;;;;;3.38;2.50;;;;;;;;;;12549367;28;20049;-80
2022/07/19 01:48:00;;;;;;;3.03;2.55;;;;;;;;;;12551884;28;20032;-79
2022/07/19 01:54:02;;;;;;;2.38;2.05;;;;;;;;;;12551214;28;20029;-76
2022/07/19 02:00:05;;;;;;;2.90;2.17;;;;;;;;;;12549869;28;20043;-78
2022/07/19 02:06:13;;;;;;;2.65;1.92;;;;;;;;;;12552143;28;20041;-76
2022/07/19 02:12:15;;;;;;;3.15;2.30;;;;;;;;;;12555211;28;20041;-76
2022/07/19 02:18:17;;;;;;;2.38;2.17;;;;;;;;;;12552245;28;20488;-76
2022/07/19 02:24:18;;;;;;;2.40;2.20;;;;;;;;;;12546949;28;20056;-75
2022/07/19 02:30:21;;;;;;;2.45;2.13;;;;;;;;;;12549298;28;20037;-75
2022/07/19 02:36:23;;;;;;;2.13;1.92;;;;;;;;;;12593639;28;20044;-76
2022/07/19 02:42:24;;;;;;;3.67;1.88;;;;;;;;;;12554637;28;20048;-76
2022/07/19 02:48:26;;;;;;;2.13;2.00;;;;;;;;;;12553805;28;20044;-80
2022/07/19 02:54:28;;;;;;;2.03;1.92;;;;;;;;;;12546417;28;20036;-80
2022/07/19 03:00:30;;;;;;;2.53;2.17;;;;;;;;;;12544217;28;20040;-80
2022/07/19 03:06:32;;;;;;;2.47;2.28;;;;;;;;;;12547260;28;20040;-76
2022/07/19 03:12:34;;;;;;;2.45;2.25;;;;;;;;;;12548142;28;20045;-80
2022/07/19 03:18:35;;;;;;;2.90;2.50;;;;;;;;;;12532311;28;20037;-80
2022/07/19 03:24:37;;;;;;;;;;;;;;;;;;12548693;28;20055;-76
2022/07/19 03:30:38;;;;;;;2.33;1.95;;;;;;;;;;12544245;28;19908;-76
2022/07/19 03:36:59;;;;;;;1.90;1.65;;;;;;;;;;12547603;28;20028;-77
2022/07/19 03:43:00;;;;;;;;;;;;;;;;;;12547452;28;20520;-76
2022/07/19 03:49:02;;;;;;;2.30;2.10;;;;;;;;;;12549067;28;19920;-76
2022/07/19 03:55:04;;;;;;;2.42;2.22;;;;;;;;;;12545998;28;20025;-77
2022/07/19 04:01:06;;;;;;;2.97;2.20;;;;;;;;;;12551027;28;20044;-80
2022/07/19 04:07:11;;;;;;;2.78;1.95;;;;;;;;;;12552056;28;20037;-80
2022/07/19 04:13:13;;;;;;;;;;;;;;;;;;12539703;28;20048;-80
2022/07/19 04:19:14;;;;;;;1.80;1.70;;;;;;;;;;12552186;28;19916;-75
2022/07/19 04:25:16;;;;;;;;;;;;;;;;;;12552165;28;20063;-76
2022/07/19 04:31:17;;;;;;;1.43;1.33;;;;;;;;;;12555174;28;19936;-76
2022/07/19 04:37:19;;;;;;;;;;;;;;;;;;12557313;28;20036;-80
2022/07/19 04:43:21;;;;;;;1.70;1.60;;;;;;;;;;12549520;28;19921;-76
2022/07/19 04:49:22;;;;;;;;;;;;;;;;;;12548800;28;20033;-80
2022/07/19 04:55:24;;;;;;;2.00;1.83;;;;;;;;;;12553690;28;19908;-75
2022/07/19 05:01:25;;;;;;;;;;;;;;;;;;12554218;28;20298;-77
2022/07/19 05:07:27;;;;;;;2.63;1.23;;;;;;;;;;12552625;28;19917;-80
2022/07/19 05:13:28;;;;;;;;;;;;;;;;;;12548614;28;20287;-76
2022/07/19 05:19:30;;;;;;;1.40;1.30;;;;;;;;;;12551553;28;19916;-76
2022/07/19 05:25:32;;;;;;;;;;;;;;;;;;12548863;28;20291;-76
2022/07/19 05:31:33;;;;;;;2.78;1.60;;;;;;;;;;12547123;28;19909;-79
2022/07/19 05:37:35;;;;;;;1.95;1.10;;;;;;;;;;12548417;28;20025;-80
2022/07/19 05:43:38;;;;;;;1.70;1.60;;;;;;;;;;12549341;28;20097;-77
2022/07/19 05:49:39;;;;;;;1.30;1.20;;;;;;;;;;12545660;28;20041;-76
2022/07/19 05:55:41;;;;;;;1.52;1.25;;;;;;;;;;12544997;28;20029;-76
2022/07/19 06:01:43;;;;;;;1.45;1.35;;;;;;;;;;12543582;28;20501;-76
2022/07/19 06:07:44;;;;;;;2.85;1.30;;;;;;;;;;12543695;28;20037;-79
2022/07/19 06:13:46;;;;;;;1.60;1.30;;;;;;;;;;12545598;28;20048;-76
2022/07/19 06:19:48;;;;;;;2.25;1.70;;;;;;;;;;12544338;28;20472;-75
2022/07/19 06:25:50;;;;;;;1.80;1.50;;;;;;;;;;12548912;28;20064;-76
2022/07/19 06:31:51;;;;;;;2.10;1.17;;;;;;;;;;12548273;28;20048;-80
2022/07/19 06:37:53;;;;;;;1.33;1.10;;;;;;;;;;12543401;28;20033;-80
2022/07/19 06:43:55;;;;;;;1.10;1.00;;;;;;;;;;12543370;28;20053;-76
2022/07/19 06:49:56;;;;;;;3.25;1.50;;;;;;;;;;12545907;28;20039;-76
2022/07/19 06:55:58;;;;;;;1.75;0.90;;;;;;;;;;12544883;28;20048;-77
2022/07/19 07:02:00;;;;;;;1.40;1.13;;;;;;;;;;12543530;28;20044;-76
2022/07/19 07:08:01;;;;;;;3.17;1.10;;;;;;;;;;12543056;28;20037;-80
2022/07/19 07:14:03;;;;;;;0.98;0.98;;;;;;;;;;12542198;28;20037;-76
2022/07/19 07:20:06;;;;;;;2.30;0.90;;;;;;;;;;12542694;28;20489;-76
2022/07/19 07:26:08;;;;;;;2.28;0.80;;;;;;;;;;12544830;28;20049;-80
2022/07/19 07:32:09;;;;;;;0.70;0.70;;;;;;;;;;12540423;28;20028;-80
2022/07/19 07:38:11;;;;;;;1.98;1.00;;;;;;;;;;12540427;28;20029;-81
2022/07/19 07:44:14;;;;;;;1.15;0.93;;;;;;;;;;12541342;28;20052;-77
2022/07/19 07:50:17;;;;;;;1.65;0.90;;;;;;;;;;12544123;28;20497;-81
2022/07/19 07:56:19;;;;;;;1.92;0.90;;;;;;;;;;12542837;28;20052;-80
2022/07/19 08:02:21;;;;;;;1.13;0.85;;;;;;;;;;12541709;28;20036;-81
2022/07/19 08:08:26;;;;;;;1.83;0.80;;;;;;;;;;12540910;28;20040;-80
2022/07/19 08:14:28;;;;;;;0.70;0.70;;;;;;;;;;12540168;28;20029;-77
2022/07/19 08:20:30;;;;;;;0.47;0.47;;;;;;;;;;12546046;28;20039;-79
2022/07/19 08:26:32;;;;;;;0.88;0.55;;;;;;;;;;12540964;28;20071;-76
2022/07/19 08:32:34;;;;;;;0.88;0.80;;;;;;;;;;12539698;28;20480;-76
2022/07/19 08:38:37;;;;;;;1.00;0.90;;;;;;;;;;12541055;28;20037;-77
2022/07/19 08:44:39;;;;;;;1.45;0.60;;;;;;;;;;12545075;28;20049;-76
2022/07/19 08:50:41;;;;;;;1.23;0.60;;;;;;;;;;12553665;28;20048;-80
2022/07/19 09:03:07;;;;;;;1.40;0.50;;;;;;;;;;12548161;28;20037;-80
2022/07/19 09:09:10;;;;;;;0.88;0.70;;;;;;;;;;12546124;28;20052;-76
2022/07/19 09:15:12;;;;;;;1.27;0.60;;;;;;;;;;12546463;28;20469;-80
2022/07/19 09:21:14;;;;;;;1.17;0.60;;;;;;;;;;12532046;28;20041;-77
2022/07/19 09:27:17;;;;;;;1.42;0.52;;;;;;;;;;12547990;28;20033;-76
2022/07/19 09:33:20;;;;;;;1.10;0.85;;;;;;;;;;12550905;28;20374;-80
2022/07/19 09:39:28;;;;;;;0.73;0.60;;;;;;;;;;12545645;28;20049;-76
2022/07/19 09:45:32;;;;;;;2.03;0.40;;;;;;;;;;12546728;28;20048;-80
2022/07/19 09:51:35;;;;;;;0.88;0.50;;;;;;;;;;12551367;28;20063;-80
2022/07/19 09:57:42;;;;;;;0.73;0.47;;;;;;;;;;12545739;28;20032;-76
2022/07/19 10:03:44;;;;;;;0.32;0.30;;;;;;;;;;12547616;28;20037;-80
2022/07/19 10:09:46;;;;;;;0.68;0.40;;;;;;;;;;12546917;28;20385;-80
2022/07/19 10:15:49;;;;;;;1.55;0.60;;;;;;;;;;12545452;28;20029;-76
2022/07/19 10:21:52;;;;;;;0.50;0.50;;;;;;;;;;12526853;28;20048;-76
2022/07/19 10:27:57;;;;;;;2.03;0.50;;;;;;;;;;12544979;28;20044;-80
2022/07/19 10:34:00;;;;;;;0.55;0.40;;;;;;;;;;12546722;28;20037;-80
2022/07/19 10:40:02;;;;;;;2.15;0.82;;;;;;;;;;12547227;28;20056;-80
2022/07/19 10:46:04;;;;;;;0.85;0.70;;;;;;;;;;12544151;28;20068;-79
2022/07/19 10:52:25;;;;;;;0.50;0.50;;;;;;;;;;12542596;28;20036;-80
2022/07/19 10:58:27;;;;;;;0.43;0.40;;;;;;;;;;12547315;28;20047;-76
2022/07/19 11:04:49;;;;;;;0.88;0.50;;;;;;;;;;12547479;28;20044;-79
2022/07/19 11:10:51;;;;;;;0.98;0.60;;;;;;;;;;12541431;28;20037;-80
2022/07/19 11:17:00;;;;;;;0.50;0.50;;;;;;;;;;12545462;28;20029;-79
2022/07/19 11:23:04;;;;;;;0.50;0.50;;;;;;;;;;12541810;28;20041;-80
2022/07/19 11:29:06;;;;;;;0.90;0.50;;;;;;;;;;12524938;28;20056;-79
2022/07/19 11:35:08;;;;;;;0.60;0.50;;;;;;;;;;12544237;28;20025;-76
2022/07/19 11:41:21;;;;;;;0.80;0.50;;;;;;;;;;12540404;28;20057;-80
2022/07/19 11:47:22;;;;;;;0.93;0.40;;;;;;;;;;12541142;28;20389;-79
2022/07/19 11:53:24;;;;;;;1.67;0.80;;;;;;;;;;12547434;28;20068;-77
2022/07/19 11:59:26;;;;;;;1.48;0.88;;;;;;;;;;12545309;28;20029;-80
2022/07/19 12:05:28;;;;;;;0.45;0.45;;;;;;;;;;12544390;28;20045;-76
2022/07/19 12:11:37;;;;;;;0.77;0.63;;;;;;;;;;12543781;28;20052;-76
2022/07/19 12:17:39;;;;;;;0.63;0.63;;;;;;;;;;12545125;28;20033;-80
2022/07/19 12:23:41;;;;;;;0.90;0.75;;;;;;;;;;12552946;28;20041;-80
2022/07/19 12:29:46;;;;;;;1.60;0.90;;;;;;;;;;12556639;28;20036;-81
2022/07/19 12:35:48;;;;;;;0.80;0.65;;;;;;;;;;12551013;28;20400;-81
2022/07/19 12:42:01;;;;;;;0.90;0.57;;;;;;;;;;12534260;28;20053;-77
2022/07/19 12:48:03;;;;;;;1.42;0.47;;;;;;;;;;12552499;28;20388;-81
2022/07/19 12:54:04;;;;;;;0.90;0.80;;;;;;;;;;12550362;28;20033;-77
2022/07/19 13:00:06;;;;;;;0.60;0.40;;;;;;;;;;12551771;28;20481;-77
2022/07/19 13:06:08;;;;;;;0.50;0.40;;;;;;;;;;12555616;28;20040;-80
2022/07/19 13:12:10;;;;;;;0.40;0.40;;;;;;;;;;12554417;28;20033;-80
2022/07/19 13:18:12;;;;;;;1.70;0.60;;;;;;;;;;12548174;28;20507;-81
2022/07/19 13:24:14;;;;;;;0.30;0.30;;;;;;;;;;12552223;28;20045;-81
2022/07/19 13:30:15;;;;;;;0.57;0.40;;;;;;;;;;12549291;28;20029;-76
2022/07/19 13:36:17;;;;;;;0.75;0.70;;;;;;;;;;12548186;28;20033;-76
2022/07/19 13:42:19;;;;;;;0.60;0.60;;;;;;;;;;12549134;28;20049;-76
2022/07/19 13:48:21;;;;;;;0.80;0.55;;;;;;;;;;12547080;28;20032;-76
2022/07/19 13:54:22;;;;;;;1.27;0.60;;;;;;;;;;12547200;28;20033;-77
2022/07/19 14:00:24;;;;;;;0.82;0.75;;;;;;;;;;12551431;28;20037;-81
2022/07/19 14:06:26;;;;;;;1.40;0.57;;;;;;;;;;12548404;28;20044;-76
2022/07/19 14:12:28;;;;;;;1.35;0.80;;;;;;;;;;12548745;28;20716;-75
2022/07/19 14:18:30;;;;;;;2.78;0.73;;;;;;;;;;12550766;28;20025;-77
2022/07/19 14:24:32;;;;;;;1.15;0.50;;;;;;;;;;12547729;28;20033;-76
2022/07/19 14:30:34;;;;;;;0.52;0.52;;;;;;;;;;12544178;28;20041;-79
2022/07/19 14:36:36;;;;;;;0.75;0.73;;;;;;;;;;12547426;28;20012;-77
2022/07/19 14:42:38;;;;;;;0.70;0.70;;;;;;;;;;12545729;28;20194;-80
2022/07/19 14:48:41;;;;;;;0.85;0.60;;;;;;;;;;12543162;28;20366;-82
2022/07/19 14:54:42;;;;;;;2.08;0.60;;;;;;;;;;12547490;28;20033;-77
2022/07/19 15:00:44;;;;;;;1.25;0.70;;;;;;;;;;12546242;28;20618;-81
2022/07/19 15:06:46;;;;;;;0.90;0.55;;;;;;;;;;12543803;28;20036;-80
2022/07/19 15:12:48;;;;;;;0.75;0.52;;;;;;;;;;12545349;28;20472;-77
2022/07/19 15:18:50;;;;;;;1.05;0.95;;;;;;;;;;12545016;28;20477;-81
2022/07/19 15:24:52;;;;;;;0.52;0.50;;;;;;;;;;12542890;28;20047;-80
2022/07/19 15:30:54;;;;;;;0.95;0.60;;;;;;;;;;12541122;28;20033;-79
2022/07/19 15:36:55;;;;;;;0.70;0.60;;;;;;;;;;12542250;28;20040;-80
2022/07/19 15:42:57;;;;;;;0.98;0.88;;;;;;;;;;12541159;28;20509;-80
2022/07/19 15:49:00;;;;;;;0.80;0.50;;;;;;;;;;12539872;28;20040;-80
2022/07/19 15:55:01;;;;;;;1.80;0.57;;;;;;;;;;12540339;28;20036;-80
2022/07/19 16:01:03;;;;;;;0.63;0.60;;;;;;;;;;12539512;28;20044;-80
2022/07/19 16:07:05;;;;;;;2.13;0.60;;;;;;;;;;12541174;28;20512;-80
2022/07/19 16:13:07;;;;;;;0.52;0.50;;;;;;;;;;12542156;28;20033;-77
2022/07/19 16:19:08;;;;;;;1.45;0.70;;;;;;;;;;12541389;28;20037;-80
2022/07/19 16:25:11;;;;;;;1.25;0.47;;;;;;;;;;12542988;28;20056;-81
2022/07/19 16:31:13;;;;;;;2.22;0.60;;;;;;;;;;12539887;28;20029;-81
2022/07/19 16:37:15;;;;;;;0.30;0.30;;;;;;;;;;12539305;28;20059;-80
2022/07/19 16:43:16;;;;;;;0.82;0.60;;;;;;;;;;12546778;28;20064;-80
2022/07/19 16:49:18;;;;;;;0.80;0.60;;;;;;;;;;12540079;28;20037;-81
2022/07/19 16:55:20;;;;;;;0.80;0.60;;;;;;;;;;12541288;28;20044;-78
2022/07/19 17:01:22;;;;;;;1.75;0.65;;;;;;;;;;12541147;28;20037;-78
2022/07/19 17:07:23;;;;;;;1.75;0.68;;;;;;;;;;12546370;28;20045;-78
2022/07/19 17:13:26;;;;;;;1.15;0.80;;;;;;;;;;12550404;28;20425;-78
2022/07/19 17:19:28;;;;;;;1.98;0.73;;;;;;;;;;12550235;28;20496;-78
2022/07/19 17:25:30;;;;;;;0.60;0.52;;;;;;;;;;12554157;28;20052;-79
2022/07/19 17:31:32;;;;;;;1.20;0.70;;;;;;;;;;12557198;28;20025;-80
2022/07/19 17:37:34;;;;;;;2.97;0.68;;;;;;;;;;12551346;28;20040;-77
2022/07/19 17:43:35;;;;;;;0.98;0.75;;;;;;;;;;12551543;28;20210;-77
2022/07/19 17:49:38;;;;;;;1.25;0.68;;;;;;;;;;12552194;28;20029;-80
2022/07/19 17:55:40;;;;;;;1.08;0.57;;;;;;;;;;12548572;28;20033;-78
2022/07/19 18:01:42;;;;;;;1.33;0.50;;;;;;;;;;12551932;28;20037;-81
2022/07/19 18:07:43;;;;;;;0.95;0.63;;;;;;;;;;12553924;28;20025;-80
2022/07/19 18:13:45;;;;;;;1.83;0.80;;;;;;;;;;12550278;28;20047;-80
2022/07/19 18:19:47;;;;;;;1.52;0.57;;;;;;;;;;12549562;28;20033;-77
2022/07/19 18:25:49;;;;;;;1.42;0.70;;;;;;;;;;12549581;28;20044;-77
2022/07/19 18:31:51;;;;;;;1.75;1.10;;;;;;;;;;12550555;28;20492;-80
2022/07/19 18:37:53;;;;;;;1.75;0.90;;;;;;;;;;12551875;28;20028;-77
2022/07/19 18:43:56;;;;;;;1.33;0.60;;;;;;;;;;12546781;28;20064;-80
2022/07/19 18:49:57;;;;;;;1.05;0.75;;;;;;;;;;12550275;28;20029;-77
2022/07/19 18:56:00;;;;;;;1.75;0.70;;;;;;;;;;12551356;28;20052;-80
2022/07/19 19:02:02;;;;;;;0.80;0.80;;;;;;;;;;12543357;28;20056;-77
2022/07/19 19:08:05;;;;;;;1.20;0.80;;;;;;;;;;12547800;28;20049;-80
2022/07/19 19:14:07;;;;;;;1.02;0.82;;;;;;;;;;12543403;28;20068;-77
2022/07/19 19:20:09;;;;;;;1.23;0.75;;;;;;;;;;12541856;28;20044;-80
2022/07/19 19:26:11;;;;;;;1.73;0.85;;;;;;;;;;12541557;28;20048;-80
2022/07/19 19:32:13;;;;;;;1.63;0.85;;;;;;;;;;12543485;28;20404;-77
2022/07/19 19:38:15;;;;;;;1.13;0.70;;;;;;;;;;12542220;28;20029;-79
2022/07/19 19:44:17;;;;;;;1.00;0.95;;;;;;;;;;12542747;28;20061;-76
2022/07/19 19:50:19;;;;;;;1.48;0.77;;;;;;;;;;12544864;28;20037;-76
2022/07/19 19:56:21;;;;;;;1.40;0.77;;;;;;;;;;12542296;28;20036;-76
2022/07/19 20:02:23;;;;;;;1.45;0.60;;;;;;;;;;12543173;28;20041;-80
2022/07/19 20:08:27;;;;;;;1.13;0.73;;;;;;;;;;12542876;28;20044;-77
2022/07/19 20:14:29;;;;;;;0.80;0.70;;;;;;;;;;12543581;28;20041;-76
2022/07/19 20:20:31;;;;;;;1.70;0.65;;;;;;;;;;12543294;28;20033;-76
2022/07/19 20:26:33;;;;;;;1.73;0.65;;;;;;;;;;12545908;28;20037;-76
2022/07/19 20:32:34;;;;;;;1.67;0.70;;;;;;;;;;12545228;28;20033;-76
2022/07/19 20:38:36;;;;;;;2.45;0.80;;;;;;;;;;12549119;28;20124;-80
2022/07/19 20:44:38;;;;;;;0.68;0.65;;;;;;;;;;12556437;28;20408;-79
2022/07/19 20:50:40;;;;;;;2.00;0.70;;;;;;;;;;12555558;28;20033;-77
2022/07/19 20:56:41;;;;;;;1.17;0.60;;;;;;;;;;12564992;28;20033;-77
2022/07/19 21:02:43;;;;;;;0.75;0.70;;;;;;;;;;12554116;28;20043;-80
2022/07/19 21:08:45;;;;;;;0.77;0.77;;;;;;;;;;12551360;28;20036;-81
2022/07/19 21:14:47;;;;;;;0.55;0.50;;;;;;;;;;12553121;28;20033;-77
2022/07/19 21:20:49;;;;;;;1.05;0.60;;;;;;;;;;12554532;28;20037;-79
2022/07/19 21:26:51;;;;;;;0.82;0.73;;;;;;;;;;12550215;28;20048;-76
2022/07/19 21:32:53;;;;;;;2.17;0.63;;;;;;;;;;12554240;28;20033;-76
2022/07/19 21:38:55;;;;;;;0.70;0.70;;;;;;;;;;12553993;28;20033;-75
2022/07/19 21:44:57;;;;;;;0.63;0.63;;;;;;;;;;12553425;28;20049;-79
2022/07/19 21:50:58;;;;;;;1.27;0.93;;;;;;;;;;12549116;28;20473;-80
2022/07/19 21:57:00;;;;;;;1.65;0.95;;;;;;;;;;12549271;28;20484;-76
2022/07/19 22:03:02;;;;;;;1.20;0.90;;;;;;;;;;12548754;28;20044;-76
2022/07/19 22:09:04;;;;;;;0.90;0.90;;;;;;;;;;12547595;28;20044;-76
2022/07/19 22:15:06;;;;;;;0.93;0.85;;;;;;;;;;12547792;28;20037;-80
2022/07/19 22:21:09;;;;;;;2.88;0.85;;;;;;;;;;12547901;28;20040;-76
2022/07/19 22:27:10;;;;;;;1.00;0.80;;;;;;;;;;12547676;28;20238;-80
2022/07/19 22:33:12;;;;;;;1.02;0.70;;;;;;;;;;12548672;28;20036;-80
2022/07/19 22:39:14;;;;;;;2.55;0.90;;;;;;;;;;12549929;28;20056;-80
2022/07/19 22:45:16;;;;;;;2.20;1.00;;;;;;;;;;12551651;28;20048;-78
2022/07/19 22:51:19;;;;;;;1.05;0.80;;;;;;;;;;12549026;28;20036;-80
2022/07/19 22:57:21;;;;;;;1.65;0.82;;;;;;;;;;12547526;28;20037;-80
2022/07/19 23:03:23;;;;;;;1.58;0.85;;;;;;;;;;12551306;28;20028;-80
2022/07/19 23:09:24;;;;;;;1.50;1.33;;;;;;;;;;12547164;28;20044;-76
2022/07/19 23:15:26;;;;;;;1.92;1.10;;;;;;;;;;12550370;28;20056;-76
2022/07/19 23:21:28;;;;;;;2.47;1.05;;;;;;;;;;12550235;28;20040;-77
2022/07/19 23:27:30;;;;;;;1.40;0.90;;;;;;;;;;12546476;28;20051;-80
2022/07/19 23:33:31;;;;;;;0.80;0.80;;;;;;;;;;12546206;28;20041;-79
2022/07/19 23:39:33;;;;;;;1.55;0.90;;;;;;;;;;12545160;28;20053;-76
2022/07/19 23:45:35;;;;;;;2.15;0.82;;;;;;;;;;12551194;28;20131;-78
2022/07/19 23:51:37;;;;;;;2.17;1.10;;;;;;;;;;12545977;28;20052;-79
2022/07/19 23:57:38;;;;;;;1.42;0.90;;;;;;;;;;12548751;28;20039;-80
